Modling, Austria
Current Conditions -  °F | °C
As of 11:50 PM on Saturday 25 Oct 2014 (Local Time) from LOWW Reporting Station
Overcast Overcast  
Wind Chill: 43°   Ceiling: 800
Heat Index: 43°   Visibility: 4mi
Dew Point: 41°   Wind: 2mph
Humidity: 93%   Direction: NA
Pressure: 30.3"   Gusts: NA
Location:  48.09°N, 16.28°E
Report Text: LOWW 252150Z VRB02KT 7000 OVC008 06/05 Q1026 NOSIG
Loading
Personal Weather Stations






























Interactive Weather Map
Tropical Storm Tracking
New forecast layout! Learn more

10-Day Weather Forecast

Advertisements
Track Severe Weather on mobile